Portada
METAR-TAF:

METAR-TAF

Aeroports :

Batajnica, Sèrbia

latitud: 44-56-07N, longitud: 020-15-27E, altitud: 86 m

Observació

L'informe es va fer fa 16 minuts, a les 23:30 UTC
Vent 5 kt del Nord
Temperatura 27°C
Humitat 70%
Pressió 1016 hPa
Visibilitat 10 km o més
sense núvols per sota de 1500 mi sense presència de cumulonimbus.

METAR: LYBT 182330Z 36005KT CAVOK 27/21 Q1016 NOSIG

Hora: 01:46 (23:46 UTC)

Pronòstic

L'informe es va fer fa 46 minuts, a les 23:00 UTC
Pronòstic vàlid del 19 a les 00 UTC al 19 a les 24 UTC
Vent 5 kt del Nord/Nord-Est
Visibilitat 10 km o més
sense núvols per sota de 1500 mi sense presència de cumulonimbus.

TAF: LYBT 182300Z 1900/1924 02005KT CAVOK TX36/1913Z TN23/1903Z

Observacions i pronòstics meteorològics de més de 4000 aeroports (METAR i TAF).

Les estacions disponibles són els punts grocs i vermells al mapa.

Posi el ratolí al punt desitjat per veure el nom de l'estació.

Feu clic per veure les observacions i els pronòstics meteorològics.

Per canviar el mapa: feu clic els botons verds amb una creu de color negre per apropar; al botó verd amb un guió per allunyar la imatge; o en les fletxes verdes per a mapes adjacents.


METAR-TAF: